Wellington, South Dakota
Current Conditions -  °F | °C
As of 5:56 PM on Friday 24 Oct 2014 (Local Time) from KFSD Reporting Station
Broken Clouds Broken Clouds  
Wind Chill: 72°   Ceiling: 23000
Heat Index: 72°   Visibility: 10mi
Dew Point: 41°   Wind: 6mph
Humidity: 33%   Direction: 320°NW
Pressure: 29.91"   Gusts: NA
Location:  43.587°N, 97.0695°W
Report Text: KFSD 242256Z 32005KT 10SM BKN230 22/05 A2991 RMK AO2 SLP127 T02220050
Loading
Personal Weather Stations






























Interactive Weather Map
Tropical Storm Tracking
New forecast layout! Learn more

10-Day Weather Forecast

Advertisements
Track Severe Weather on mobile